createdAt,value
2023-01-09T00:03:09.852Z,8.07
2023-01-09T00:08:34.447Z,7.65
2023-01-09T00:13:57.781Z,7.07
2023-01-09T00:19:21.273Z,9.43
2023-01-09T00:24:46.071Z,7.43
2023-01-09T00:30:11.890Z,8.73
2023-01-09T00:35:35.781Z,8.13
2023-01-09T00:41:03.350Z,8.45
2023-01-09T00:46:31.702Z,7.13
2023-01-09T00:51:56.286Z,7.63
2023-01-09T00:57:21.313Z,6.60
2023-01-09T01:02:44.835Z,8.32
2023-01-09T01:08:12.425Z,6.95
2023-01-09T01:13:37.737Z,6.78
2023-01-09T01:19:01.268Z,7.65
2023-01-09T01:24:25.065Z,5.60
2023-01-09T01:29:50.317Z,7.13
2023-01-09T01:35:14.018Z,6.32
2023-01-09T01:40:38.261Z,6.80
2023-01-09T01:46:02.833Z,6.28
2023-01-09T01:51:30.302Z,7.00
2023-01-09T01:56:58.485Z,6.85
2023-01-09T02:02:26.737Z,6.70
2023-01-09T02:07:50.092Z,5.33
2023-01-09T02:13:14.770Z,6.03
2023-01-09T02:18:52.020Z,8.30
2023-01-09T02:24:56.037Z,6.82
2023-01-09T02:30:33.564Z,9.50
2023-01-09T02:36:11.368Z,7.70
2023-01-09T02:41:50.523Z,8.90
2023-01-09T02:47:40.573Z,7.55
2023-01-09T02:53:28.855Z,7.32
2023-01-09T02:59:15.926Z,8.85
2023-01-09T03:04:51.871Z,8.35
2023-01-09T03:10:20.673Z,9.73
2023-01-09T03:15:50.744Z,7.85
2023-01-09T03:21:17.519Z,7.88
2023-01-09T03:26:42.773Z,8.25
2023-01-09T03:32:06.515Z,7.40
2023-01-09T03:43:05.169Z,8.02
2023-01-09T03:48:34.360Z,7.95
2023-01-09T03:54:04.710Z,6.43
2023-01-09T03:59:33.852Z,8.20
2023-01-09T04:05:03.389Z,8.65
2023-01-09T04:10:32.495Z,7.28
2023-01-09T04:16:01.964Z,8.15
2023-01-09T04:21:28.751Z,9.15
2023-01-09T04:26:59.442Z,8.90
2023-01-09T04:32:28.472Z,9.05
2023-01-09T04:37:55.950Z,7.13
2023-01-09T04:43:26.410Z,7.53
2023-01-09T04:48:51.881Z,11.25
2023-01-09T04:54:21.628Z,8.68
2023-01-09T04:59:46.567Z,11.23
2023-01-09T05:05:16.048Z,7.50
2023-01-09T05:10:38.461Z,9.23
2023-01-09T05:16:09.813Z,8.38
2023-01-09T05:21:33.573Z,8.05
2023-01-09T05:27:05.061Z,10.15
2023-01-09T05:32:30.013Z,7.40
2023-01-09T05:37:58.899Z,7.80
2023-01-09T05:43:22.598Z,6.75
2023-01-09T05:48:47.614Z,9.57
2023-01-09T05:54:11.057Z,7.60
2023-01-09T05:59:35.119Z,7.18
2023-01-09T06:05:00.090Z,8.85
2023-01-09T06:10:23.632Z,9.07
2023-01-09T06:15:48.700Z,7.15
2023-01-09T06:21:13.656Z,8.63
2023-01-09T06:26:36.915Z,9.25
2023-01-09T06:32:00.785Z,8.52
2023-01-09T06:37:25.901Z,7.00
2023-01-09T06:42:50.454Z,5.78
2023-01-09T06:48:14.313Z,6.68
2023-01-09T06:53:39.149Z,6.40
2023-01-09T06:59:02.617Z,6.70
2023-01-09T07:04:25.573Z,7.07
2023-01-09T07:09:50.229Z,7.95
2023-01-09T07:15:13.283Z,5.30
2023-01-09T07:20:36.912Z,6.53
2023-01-09T07:26:02.743Z,6.18
2023-01-09T07:31:26.416Z,7.40
2023-01-09T07:36:51.352Z,7.35
2023-01-09T07:42:16.434Z,5.75
2023-01-09T07:47:41.228Z,6.35
2023-01-09T07:53:09.975Z,7.07
2023-01-09T07:58:41.012Z,6.13
2023-01-09T08:04:10.105Z,6.07
2023-01-09T08:09:39.234Z,6.13
2023-01-09T08:15:10.545Z,4.93
2023-01-09T08:20:39.290Z,5.65
2023-01-09T08:26:08.153Z,5.87
2023-01-09T08:31:38.723Z,6.43
2023-01-09T08:37:08.023Z,4.95
2023-01-09T08:42:55.181Z,5.13
2023-01-09T08:48:25.591Z,5.65
2023-01-09T08:59:23.092Z,5.20
2023-01-09T09:04:54.474Z,4.82
2023-01-09T09:10:24.194Z,5.20
2023-01-09T09:15:53.116Z,6.35
2023-01-09T09:21:23.425Z,5.63
2023-01-09T09:26:52.116Z,5.50
2023-01-09T09:32:21.554Z,5.35
2023-01-09T09:37:59.139Z,5.37
2023-01-09T09:44:10.665Z,4.35
2023-01-09T09:49:50.960Z,4.00
2023-01-09T09:55:28.448Z,5.13
2023-01-09T10:00:59.523Z,4.72
2023-01-09T14:35:00.098Z,3.40
2023-01-09T14:40:27.425Z,3.15
2023-01-09T14:46:04.643Z,3.33
2023-01-09T14:51:39.771Z,2.90
2023-01-09T14:57:24.841Z,3.30
2023-01-09T15:02:54.742Z,2.58
2023-01-09T15:08:28.656Z,3.13
2023-01-09T15:19:24.561Z,2.67
2023-01-09T15:24:50.470Z,2.90
2023-01-09T15:30:19.592Z,2.73
2023-01-09T15:35:46.767Z,2.65
2023-01-09T15:41:38.698Z,3.17
2023-01-09T15:47:15.751Z,3.17
2023-01-09T15:52:46.121Z,2.60
2023-01-09T15:58:29.158Z,2.53
2023-01-09T16:04:04.923Z,2.50
2023-01-09T16:09:36.464Z,3.97
2023-01-09T16:15:07.534Z,3.33
2023-01-09T16:20:30.765Z,3.65
2023-01-09T16:26:07.938Z,3.27
2023-01-09T16:31:38.575Z,3.95
2023-01-09T16:37:08.017Z,3.22
2023-01-09T16:42:54.853Z,2.55
2023-01-09T16:48:25.933Z,2.78
2023-01-09T16:53:55.175Z,2.33
2023-01-09T16:59:28.160Z,3.00
2023-01-09T17:04:59.481Z,3.00
2023-01-09T17:10:28.263Z,2.92
2023-01-09T17:15:58.723Z,3.33
2023-01-09T17:21:30.852Z,3.33
2023-01-09T17:27:19.356Z,2.67
2023-01-09T17:32:49.158Z,2.97
2023-01-09T17:38:20.313Z,2.60
2023-01-09T17:43:49.167Z,3.33
2023-01-09T17:49:20.619Z,3.13
2023-01-09T17:54:51.373Z,2.10
2023-01-09T18:00:26.745Z,3.13
2023-01-09T18:05:56.315Z,3.13
2023-01-09T18:11:26.999Z,3.40
2023-01-09T18:16:56.025Z,2.70
2023-01-09T18:22:26.003Z,3.17
2023-01-09T18:27:56.359Z,2.60
2023-01-09T18:33:25.150Z,2.97
2023-01-09T18:38:54.814Z,2.92
2023-01-09T18:44:25.950Z,3.67
2023-01-09T18:49:55.237Z,3.20
2023-01-09T18:55:24.350Z,2.85
2023-01-09T19:01:00.211Z,3.35
2023-01-09T22:49:41.128Z,4.57
2023-01-09T22:55:17.490Z,3.95
2023-01-09T23:00:47.015Z,4.57
2023-01-09T23:06:19.013Z,3.88
2023-01-09T23:12:10.759Z,2.85
2023-01-09T23:17:39.677Z,2.10
2023-01-09T23:23:05.012Z,2.88
2023-01-09T23:28:33.816Z,2.90
2023-01-09T23:39:32.145Z,2.58
2023-01-09T23:45:00.836Z,3.45
2023-01-09T23:50:25.837Z,2.25
2023-01-09T23:55:55.281Z,2.17
